createdAt,value
2018-06-21T00:00:17.115Z,0.00
2018-06-21T00:01:17.117Z,0.00
2018-06-21T00:02:17.118Z,0.00
2018-06-21T00:03:17.122Z,0.00
2018-06-21T00:04:17.124Z,0.00
2018-06-21T00:05:17.127Z,0.00
2018-06-21T00:06:17.128Z,0.00
2018-06-21T00:07:17.130Z,0.00
2018-06-21T00:08:17.135Z,0.00
2018-06-21T00:09:17.136Z,0.00
2018-06-21T00:10:17.138Z,0.00
2018-06-21T00:11:17.140Z,0.00
2018-06-21T00:12:17.146Z,0.00
2018-06-21T00:13:17.146Z,0.00
2018-06-21T00:14:17.148Z,0.00
2018-06-21T00:15:17.151Z,0.00
2018-06-21T00:16:17.154Z,0.00
2018-06-21T00:17:17.156Z,0.00
2018-06-21T00:18:17.158Z,0.00
2018-06-21T00:19:17.163Z,0.00
2018-06-21T00:20:17.163Z,0.00
2018-06-21T00:21:17.166Z,0.00
2018-06-21T00:22:17.166Z,0.00
2018-06-21T00:23:17.169Z,0.00
2018-06-21T00:24:17.172Z,0.00
2018-06-21T00:25:17.176Z,0.00
2018-06-21T00:26:17.175Z,0.00
2018-06-21T00:27:17.179Z,0.00
2018-06-21T00:28:17.183Z,0.00
2018-06-21T00:29:17.244Z,0.00
2018-06-21T00:30:17.185Z,0.00
2018-06-21T00:31:17.187Z,0.00
2018-06-21T00:32:17.191Z,0.00
2018-06-21T00:33:17.192Z,0.00
2018-06-21T00:34:17.193Z,0.00
2018-06-21T00:35:17.196Z,0.00
2018-06-21T00:36:17.200Z,0.00
2018-06-21T00:37:17.203Z,0.00
2018-06-21T00:38:17.204Z,0.00
2018-06-21T00:39:17.205Z,0.00
2018-06-21T00:40:17.208Z,0.00
2018-06-21T00:41:17.211Z,0.00
2018-06-21T00:42:17.211Z,0.00
2018-06-21T00:43:17.214Z,0.00
2018-06-21T00:44:17.217Z,0.00
2018-06-21T00:45:17.218Z,0.00
2018-06-21T00:46:17.220Z,0.00
2018-06-21T00:47:17.222Z,0.00
2018-06-21T00:48:17.226Z,0.00
2018-06-21T00:49:17.227Z,0.00
2018-06-21T00:50:17.228Z,0.00
2018-06-21T00:51:17.234Z,0.00
2018-06-21T00:52:17.235Z,0.00
2018-06-21T00:53:17.237Z,0.00
2018-06-21T00:54:17.242Z,0.00
2018-06-21T00:55:17.240Z,0.00
2018-06-21T00:56:17.242Z,0.00
2018-06-21T00:57:17.245Z,0.00
2018-06-21T00:58:17.246Z,0.00
2018-06-21T00:59:17.247Z,0.00
2018-06-21T01:00:17.250Z,0.00
2018-06-21T01:01:17.254Z,0.00
2018-06-21T01:02:17.254Z,0.00
2018-06-21T01:03:17.257Z,0.00
2018-06-21T01:04:17.258Z,0.00
2018-06-21T01:05:17.260Z,0.00
2018-06-21T01:06:17.266Z,0.00
2018-06-21T01:07:17.264Z,0.00
2018-06-21T01:08:17.266Z,0.00
2018-06-21T01:09:17.270Z,0.00
2018-06-21T01:10:17.269Z,0.00
2018-06-21T01:11:17.272Z,0.00
2018-06-21T01:12:17.275Z,0.00
2018-06-21T01:13:17.276Z,0.00
2018-06-21T01:14:17.278Z,0.00
2018-06-21T01:15:17.282Z,0.00
2018-06-21T01:16:17.283Z,0.00
2018-06-21T01:17:17.284Z,0.00
2018-06-21T01:18:17.285Z,0.00
2018-06-21T01:19:17.286Z,0.00
2018-06-21T01:20:17.290Z,0.00
2018-06-21T01:21:17.291Z,0.00
2018-06-21T01:22:17.294Z,0.00
2018-06-21T01:23:17.295Z,0.00
2018-06-21T01:24:17.297Z,0.00
2018-06-21T01:25:17.304Z,0.00
2018-06-21T01:26:17.301Z,0.00
2018-06-21T01:27:17.302Z,0.00
2018-06-21T01:28:17.305Z,0.00
2018-06-21T01:29:17.307Z,0.00
2018-06-21T01:30:17.307Z,0.00
2018-06-21T01:31:17.310Z,0.00
2018-06-21T01:32:17.311Z,0.00
2018-06-21T01:33:17.314Z,0.00
2018-06-21T01:34:17.315Z,0.00
2018-06-21T01:35:17.318Z,0.00
2018-06-21T01:36:17.320Z,0.00
2018-06-21T01:37:17.323Z,0.00
2018-06-21T01:38:17.328Z,0.00
2018-06-21T01:39:17.325Z,0.00
2018-06-21T01:40:17.327Z,0.00
2018-06-21T01:41:17.329Z,0.00
2018-06-21T01:42:17.330Z,0.00
2018-06-21T01:43:17.332Z,0.00
2018-06-21T01:44:17.336Z,0.00
2018-06-21T01:45:17.335Z,0.00
2018-06-21T01:46:17.337Z,0.00
2018-06-21T01:47:17.339Z,0.00
2018-06-21T01:48:17.340Z,0.00
2018-06-21T01:49:17.342Z,0.00
2018-06-21T01:50:17.344Z,0.00
2018-06-21T01:51:17.346Z,0.00
2018-06-21T01:52:17.348Z,0.00
2018-06-21T01:53:17.351Z,0.00
2018-06-21T01:54:17.351Z,0.00
2018-06-21T01:55:17.354Z,0.00
2018-06-21T01:56:17.357Z,0.00
2018-06-21T01:57:17.356Z,0.00
2018-06-21T01:58:17.358Z,0.00
2018-06-21T01:59:17.361Z,0.00
2018-06-21T02:00:17.362Z,0.00
2018-06-21T02:01:17.377Z,0.00
2018-06-21T02:02:17.364Z,0.00
2018-06-21T02:03:17.368Z,0.00
2018-06-21T02:04:17.370Z,0.00
2018-06-21T02:05:17.370Z,0.00
2018-06-21T02:06:17.372Z,0.00
2018-06-21T02:07:17.373Z,0.00
2018-06-21T02:08:17.376Z,0.00
2018-06-21T02:09:17.378Z,0.00
2018-06-21T02:10:17.381Z,0.00
2018-06-21T02:11:17.381Z,0.00
2018-06-21T02:12:17.382Z,0.00
2018-06-21T02:13:17.389Z,0.00
2018-06-21T02:14:17.390Z,0.00
2018-06-21T02:15:17.387Z,0.00
2018-06-21T02:16:17.388Z,0.00
2018-06-21T02:17:17.391Z,0.00
2018-06-21T02:18:17.391Z,0.00
2018-06-21T02:19:17.397Z,0.00
2018-06-21T02:20:17.396Z,0.00
2018-06-21T02:21:17.397Z,0.00
2018-06-21T02:22:17.400Z,0.00
2018-06-21T02:23:17.404Z,0.00
2018-06-21T02:24:17.402Z,0.00
2018-06-21T02:25:17.408Z,0.00
2018-06-21T02:26:17.404Z,0.00
2018-06-21T02:27:17.407Z,0.00
2018-06-21T02:28:17.409Z,0.00
2018-06-21T02:29:17.410Z,0.00
2018-06-21T02:30:17.415Z,0.00
2018-06-21T02:31:17.414Z,0.00
2018-06-21T02:32:17.416Z,0.00
2018-06-21T02:33:17.421Z,0.00
2018-06-21T02:34:17.451Z,0.00
2018-06-21T02:35:17.421Z,0.00
2018-06-21T02:36:17.422Z,0.00
2018-06-21T02:37:17.424Z,0.00
2018-06-21T02:38:17.424Z,0.00
2018-06-21T02:39:17.428Z,0.00
2018-06-21T02:40:17.428Z,0.00
2018-06-21T02:41:17.459Z,0.00
2018-06-21T02:42:17.431Z,0.00
2018-06-21T02:43:17.433Z,0.00
2018-06-21T02:44:17.434Z,0.00
2018-06-21T02:45:17.436Z,4.00
2018-06-21T02:46:17.438Z,4.00
2018-06-21T02:47:17.440Z,0.00
2018-06-21T02:48:17.441Z,0.00
2018-06-21T02:49:17.441Z,4.00
2018-06-21T02:50:17.444Z,4.00
2018-06-21T02:51:17.444Z,0.00
2018-06-21T02:52:17.446Z,4.00
2018-06-21T02:53:17.449Z,4.00
2018-06-21T02:54:17.452Z,4.00
2018-06-21T02:55:17.453Z,8.00
2018-06-21T02:56:17.456Z,4.00
2018-06-21T02:57:17.456Z,4.00
2018-06-21T02:58:17.455Z,8.00
2018-06-21T02:59:17.459Z,8.00
2018-06-21T03:00:17.458Z,8.00
2018-06-21T03:01:17.462Z,8.00
2018-06-21T03:02:17.461Z,12.00
2018-06-21T03:03:17.472Z,12.00
2018-06-21T03:04:17.465Z,12.00
2018-06-21T03:05:17.468Z,16.00
2018-06-21T03:06:17.467Z,20.00
2018-06-21T03:07:17.471Z,16.00
2018-06-21T03:08:17.471Z,20.00
2018-06-21T03:09:17.473Z,24.00
2018-06-21T03:10:17.481Z,28.00
2018-06-21T03:11:17.523Z,32.00
2018-06-21T03:12:17.478Z,32.00
2018-06-21T03:13:17.480Z,36.00
2018-06-21T03:14:17.479Z,40.00
2018-06-21T03:15:17.479Z,44.00
2018-06-21T03:16:17.482Z,48.00
2018-06-21T03:17:17.485Z,52.00
2018-06-21T03:18:17.483Z,56.00
2018-06-21T03:19:17.484Z,60.00
2018-06-21T03:20:17.487Z,64.00
2018-06-21T03:21:17.489Z,72.00
2018-06-21T03:22:17.490Z,76.00
2018-06-21T03:23:17.490Z,80.00
2018-06-21T03:24:17.493Z,84.00
2018-06-21T03:25:17.494Z,96.00
2018-06-21T03:26:17.499Z,100.00
2018-06-21T03:27:17.496Z,104.00
2018-06-21T03:28:17.499Z,112.00
2018-06-21T03:29:17.500Z,116.00
2018-06-21T03:30:17.500Z,124.00
2018-06-21T03:31:17.503Z,132.00
2018-06-21T03:32:17.503Z,140.00
2018-06-21T03:33:17.506Z,148.00
2018-06-21T03:34:17.506Z,156.00
2018-06-21T03:35:17.527Z,164.00
2018-06-21T03:36:17.508Z,172.00
2018-06-21T03:37:17.511Z,180.00
2018-06-21T03:38:17.563Z,184.00
2018-06-21T03:39:17.512Z,192.00
2018-06-21T03:40:17.515Z,200.00
2018-06-21T03:41:17.517Z,212.00
2018-06-21T03:42:17.516Z,220.00
2018-06-21T03:43:17.519Z,228.00
2018-06-21T03:44:17.520Z,236.00
2018-06-21T03:45:17.523Z,244.00
2018-06-21T03:46:17.521Z,252.00
2018-06-21T03:47:17.523Z,264.00
2018-06-21T03:48:17.525Z,272.00
2018-06-21T03:49:17.526Z,276.00
2018-06-21T03:50:17.527Z,288.00
2018-06-21T03:51:17.529Z,296.00
2018-06-21T03:52:17.549Z,308.00
2018-06-21T03:53:17.532Z,312.00
2018-06-21T03:54:17.533Z,324.00
2018-06-21T03:55:17.538Z,332.00
2018-06-21T03:56:17.535Z,340.00
2018-06-21T03:57:17.536Z,352.00
2018-06-21T03:58:17.536Z,356.00
2018-06-21T03:59:17.538Z,368.00
2018-06-21T04:00:17.540Z,376.00
2018-06-21T04:01:17.542Z,384.00
2018-06-21T04:02:17.542Z,392.00
2018-06-21T04:03:17.544Z,400.00
2018-06-21T04:04:17.545Z,412.00
2018-06-21T04:05:17.581Z,420.00
2018-06-21T04:06:17.549Z,432.00
2018-06-21T04:07:17.550Z,436.00
2018-06-21T04:08:17.572Z,448.00
2018-06-21T04:09:17.553Z,460.00
2018-06-21T04:10:17.553Z,468.00
2018-06-21T04:11:17.558Z,480.00
2018-06-21T04:12:17.556Z,492.00
2018-06-21T04:13:17.557Z,500.00
2018-06-21T04:14:17.558Z,516.00
2018-06-21T04:15:17.560Z,524.00
2018-06-21T04:16:17.564Z,536.00
2018-06-21T04:17:17.567Z,544.00
2018-06-21T04:18:17.564Z,556.00
2018-06-21T04:19:17.565Z,568.00
2018-06-21T04:20:17.567Z,580.00
2018-06-21T04:21:17.570Z,592.00
2018-06-21T04:22:17.569Z,604.00
2018-06-21T04:23:17.572Z,616.00
2018-06-21T04:24:17.574Z,628.00
2018-06-21T04:25:17.575Z,644.00
2018-06-21T04:26:17.575Z,656.00
2018-06-21T04:27:17.576Z,676.00
2018-06-21T04:28:17.578Z,692.00
2018-06-21T04:29:17.580Z,712.00
2018-06-21T04:30:17.580Z,744.00
2018-06-21T04:31:17.583Z,780.00
2018-06-21T04:32:17.627Z,828.00
2018-06-21T04:33:17.586Z,872.00
2018-06-21T04:34:17.587Z,912.00
2018-06-21T04:35:17.589Z,928.00
2018-06-21T04:36:17.589Z,920.00
2018-06-21T04:37:17.591Z,916.00
2018-06-21T04:38:17.592Z,900.00
2018-06-21T04:39:17.594Z,884.00
2018-06-21T04:40:17.596Z,900.00
2018-06-21T04:41:17.597Z,920.00
2018-06-21T04:42:17.598Z,928.00
2018-06-21T04:43:17.599Z,932.00
2018-06-21T04:44:17.601Z,944.00
2018-06-21T04:45:17.604Z,960.00
2018-06-21T04:46:17.605Z,972.00
2018-06-21T04:47:17.605Z,984.00
2018-06-21T04:48:17.612Z,1004.00
2018-06-21T04:49:17.612Z,1020.00
2018-06-21T04:50:17.612Z,1044.00
2018-06-21T04:51:17.613Z,1064.00
2018-06-21T04:52:17.614Z,1084.00
2018-06-21T04:53:17.617Z,1100.00
2018-06-21T04:54:17.617Z,1112.00
2018-06-21T04:55:17.619Z,1128.00
2018-06-21T04:56:17.623Z,1140.00
2018-06-21T04:57:17.622Z,1164.00
2018-06-21T04:58:17.624Z,1160.00
2018-06-21T04:59:17.626Z,1172.00
2018-06-21T05:00:17.628Z,1180.00
2018-06-21T05:01:17.630Z,1192.00
2018-06-21T05:02:17.631Z,1212.00
2018-06-21T05:03:17.636Z,1232.00
2018-06-21T05:04:17.635Z,1252.00
2018-06-21T05:05:17.637Z,1268.00
2018-06-21T05:06:17.647Z,1292.00
2018-06-21T05:07:17.639Z,1312.00
2018-06-21T05:08:17.642Z,1328.00
2018-06-21T05:09:17.644Z,1348.00
2018-06-21T05:10:17.646Z,1376.00
2018-06-21T05:11:17.647Z,1400.00
2018-06-21T05:12:17.648Z,1428.00
2018-06-21T05:13:17.651Z,1452.00
2018-06-21T05:14:17.653Z,1476.00
2018-06-21T05:15:17.655Z,1496.00
2018-06-21T05:16:17.657Z,1504.00
2018-06-21T05:17:17.659Z,1528.00
2018-06-21T05:18:17.709Z,1548.00
2018-06-21T05:19:17.663Z,1568.00
2018-06-21T05:20:17.668Z,1588.00
2018-06-21T05:21:17.667Z,1612.00
2018-06-21T05:22:17.671Z,1636.00
2018-06-21T05:23:17.674Z,1656.00
2018-06-21T05:24:17.672Z,1676.00
2018-06-21T05:25:17.674Z,1700.00
2018-06-21T05:26:17.678Z,1724.00
2018-06-21T05:27:17.678Z,1732.00
2018-06-21T05:28:17.680Z,1756.00
2018-06-21T05:29:17.682Z,1768.00
2018-06-21T05:30:17.685Z,1772.00
2018-06-21T05:31:17.687Z,1800.00
2018-06-21T05:32:17.691Z,1832.00
2018-06-21T05:33:17.691Z,1864.00
2018-06-21T05:34:17.692Z,1896.00
2018-06-21T05:35:17.696Z,1920.00
2018-06-21T05:36:17.697Z,1936.00
2018-06-21T05:37:17.700Z,1956.00
2018-06-21T05:38:17.702Z,1960.00
2018-06-21T05:39:17.704Z,1988.00
2018-06-21T05:40:17.706Z,2016.00
2018-06-21T05:41:17.712Z,2040.00
2018-06-21T05:42:17.710Z,2064.00
2018-06-21T05:43:17.714Z,2052.00
2018-06-21T05:44:17.720Z,2064.00
2018-06-21T05:45:17.718Z,2084.00
2018-06-21T05:46:17.724Z,2100.00
2018-06-21T05:47:17.722Z,2092.00
2018-06-21T05:48:17.726Z,2104.00
2018-06-21T05:49:17.728Z,2116.00
2018-06-21T05:50:17.785Z,2124.00
2018-06-21T05:51:17.732Z,2124.00
2018-06-21T05:52:17.735Z,2148.00
2018-06-21T05:53:17.738Z,2176.00
2018-06-21T05:54:17.780Z,2196.00
2018-06-21T05:55:17.743Z,2212.00
2018-06-21T05:56:17.745Z,2228.00
2018-06-21T05:57:17.748Z,2244.00
2018-06-21T05:58:17.749Z,2260.00
2018-06-21T05:59:17.754Z,2276.00
2018-06-21T06:00:17.755Z,2300.00
2018-06-21T06:01:17.759Z,2300.00
2018-06-21T06:02:17.912Z,2320.00
2018-06-21T06:03:17.792Z,2368.00
2018-06-21T06:04:17.853Z,2380.00
2018-06-21T06:05:17.822Z,2392.00
2018-06-21T06:06:17.809Z,2420.00
2018-06-21T06:07:17.880Z,2428.00
2018-06-21T06:08:17.914Z,2440.00
2018-06-21T06:09:17.875Z,2448.00
2018-06-21T06:10:17.784Z,2464.00
2018-06-21T06:11:17.786Z,2492.00
2018-06-21T06:12:17.788Z,2492.00
2018-06-21T06:13:17.792Z,2500.00
2018-06-21T06:14:17.795Z,2532.00
2018-06-21T06:15:17.799Z,2576.00
2018-06-21T06:16:17.802Z,2596.00
2018-06-21T06:17:17.805Z,2556.00
2018-06-21T06:18:17.808Z,2660.00
2018-06-21T06:19:17.810Z,2684.00
2018-06-21T06:20:17.813Z,2704.00
2018-06-21T06:21:17.818Z,2724.00
2018-06-21T06:22:17.819Z,2748.00
2018-06-21T06:23:17.823Z,2776.00
2018-06-21T06:24:17.826Z,2784.00
2018-06-21T06:25:17.831Z,2792.00
2018-06-21T06:26:17.833Z,2824.00
2018-06-21T06:27:17.837Z,2844.00
2018-06-21T06:28:17.841Z,2840.00
2018-06-21T06:29:17.845Z,2852.00
2018-06-21T06:30:17.846Z,2876.00
2018-06-21T06:31:17.850Z,2884.00
2018-06-21T06:32:17.854Z,2916.00
2018-06-21T06:33:17.858Z,2956.00
2018-06-21T06:34:17.862Z,2984.00
2018-06-21T06:35:17.866Z,3012.00
2018-06-21T06:36:17.868Z,3052.00
2018-06-21T06:37:17.876Z,3060.00
2018-06-21T06:38:17.875Z,3088.00
2018-06-21T06:39:17.880Z,3112.00
2018-06-21T06:40:17.904Z,3120.00
2018-06-21T06:41:17.891Z,3152.00
2018-06-21T06:42:17.891Z,3176.00
2018-06-21T06:43:17.895Z,3204.00
2018-06-21T06:44:17.899Z,3244.00
2018-06-21T06:45:17.903Z,3288.00
2018-06-21T06:46:17.938Z,3316.00
2018-06-21T06:47:17.911Z,3336.00
2018-06-21T06:48:17.914Z,3340.00
2018-06-21T06:49:17.920Z,3352.00
2018-06-21T06:50:17.922Z,3400.00
2018-06-21T06:51:17.928Z,3440.00
2018-06-21T06:52:17.934Z,3464.00
2018-06-21T06:53:17.935Z,3504.00
2018-06-21T06:54:17.941Z,3508.00
2018-06-21T06:55:17.943Z,3512.00
2018-06-21T06:56:17.948Z,3544.00
2018-06-21T06:57:17.953Z,3580.00
2018-06-21T06:58:17.956Z,3596.00
2018-06-21T06:59:17.961Z,3648.00
2018-06-21T07:00:17.966Z,3676.00
2018-06-21T07:01:17.970Z,3688.00
2018-06-21T07:02:17.975Z,3724.00
2018-06-21T07:03:17.978Z,3740.00
2018-06-21T07:04:17.983Z,3760.00
2018-06-21T07:05:17.987Z,3772.00
2018-06-21T07:06:17.991Z,3780.00
2018-06-21T07:07:17.998Z,3816.00
2018-06-21T07:08:18.069Z,3876.00
2018-06-21T07:09:18.007Z,3872.00
2018-06-21T07:10:18.011Z,3860.00
2018-06-21T07:11:18.015Z,3828.00
2018-06-21T07:12:18.019Z,3856.00
2018-06-21T07:13:18.265Z,3880.00
2018-06-21T07:14:18.064Z,3900.00
2018-06-21T07:15:18.035Z,3928.00
2018-06-21T07:16:18.040Z,3972.00
2018-06-21T07:17:18.044Z,4028.00
2018-06-21T07:18:18.049Z,4048.00
2018-06-21T07:19:18.053Z,4076.00
2018-06-21T07:20:18.079Z,4224.00
2018-06-21T07:21:18.112Z,4412.00
2018-06-21T07:22:18.067Z,4620.00
2018-06-21T07:23:18.075Z,4844.00
2018-06-21T07:24:18.079Z,5240.00
2018-06-21T07:25:18.083Z,5584.00
2018-06-21T07:26:18.089Z,5972.00
2018-06-21T07:27:18.093Z,6480.00
2018-06-21T07:28:18.099Z,7412.00
2018-06-21T07:29:18.108Z,6384.00
2018-06-21T07:30:18.116Z,6204.00
2018-06-21T07:31:18.115Z,7416.00
2018-06-21T07:32:18.120Z,26560.00
2018-06-21T07:33:18.222Z,53856.00
2018-06-21T07:34:18.135Z,80896.00
2018-06-21T07:35:18.139Z,78016.00
2018-06-21T07:36:18.159Z,46624.00
2018-06-21T07:37:18.152Z,42272.00
2018-06-21T07:38:18.170Z,76960.00
2018-06-21T07:39:18.168Z,79616.00
2018-06-21T07:40:18.245Z,76640.00
2018-06-21T07:41:18.186Z,71424.00
2018-06-21T07:42:18.192Z,71872.00
2018-06-21T07:43:18.203Z,57536.00
2018-06-21T07:44:18.212Z,42336.00
2018-06-21T07:45:18.222Z,72256.00
2018-06-21T07:46:18.232Z,64032.00
2018-06-21T07:47:18.245Z,32096.00
2018-06-21T07:48:18.256Z,68096.00
2018-06-21T07:49:18.265Z,59104.00
2018-06-21T07:50:18.275Z,38592.00
2018-06-21T07:51:18.286Z,25600.00
2018-06-21T07:52:18.298Z,18624.00
2018-06-21T07:53:18.309Z,16448.00
2018-06-21T07:54:18.320Z,40384.00
2018-06-21T07:55:18.333Z,73760.00
2018-06-21T07:56:18.344Z,82144.00
2018-06-21T07:57:18.356Z,83776.00
2018-06-21T07:58:18.366Z,80736.00
2018-06-21T07:59:18.380Z,80768.00
2018-06-21T08:00:18.393Z,82464.00
2018-06-21T08:01:18.406Z,73216.00
2018-06-21T08:02:18.422Z,75168.00
2018-06-21T08:03:18.434Z,51584.00
2018-06-21T08:04:18.447Z,7668.00
2018-06-21T08:05:18.461Z,70848.00
2018-06-21T08:06:18.474Z,74432.00
2018-06-21T08:07:18.489Z,79456.00
2018-06-21T08:08:18.502Z,67744.00
2018-06-21T08:09:18.516Z,43264.00
2018-06-21T08:10:18.529Z,69280.00
2018-06-21T08:11:18.544Z,72640.00
2018-06-21T08:12:18.577Z,70048.00
2018-06-21T08:13:18.573Z,58944.00
2018-06-21T08:14:18.907Z,69088.00
2018-06-21T08:15:18.866Z,70048.00
2018-06-21T08:16:18.876Z,69408.00
2018-06-21T08:17:18.910Z,70336.00
2018-06-21T08:18:19.385Z,67008.00
2018-06-21T08:19:18.660Z,64256.00
2018-06-21T08:20:18.713Z,60928.00
2018-06-21T08:21:18.693Z,65984.00
2018-06-21T08:22:18.704Z,67648.00
2018-06-21T08:23:18.735Z,65184.00
2018-06-21T08:24:18.794Z,74560.00
2018-06-21T08:25:18.749Z,71136.00
2018-06-21T08:26:18.764Z,66464.00
2018-06-21T08:27:18.808Z,68352.00
2018-06-21T08:28:18.794Z,67968.00
2018-06-21T08:29:18.813Z,66144.00
2018-06-21T08:30:18.825Z,68000.00
2018-06-21T08:31:18.840Z,68832.00
2018-06-21T08:32:18.910Z,64480.00
2018-06-21T08:33:18.878Z,63296.00
2018-06-21T08:34:18.886Z,68448.00
2018-06-21T08:35:18.905Z,64800.00
2018-06-21T08:36:18.917Z,62304.00
2018-06-21T08:37:18.934Z,65344.00
2018-06-21T08:38:18.949Z,67776.00
2018-06-21T08:39:18.963Z,66304.00
2018-06-21T08:40:18.981Z,63520.00
2018-06-21T08:41:18.998Z,67584.00
2018-06-21T08:42:19.011Z,65632.00
2018-06-21T08:43:19.029Z,61984.00
2018-06-21T08:44:19.045Z,64896.00
2018-06-21T08:45:19.061Z,67072.00
2018-06-21T08:46:19.077Z,69024.00
2018-06-21T08:47:19.093Z,65632.00
2018-06-21T08:48:19.110Z,59488.00
2018-06-21T08:49:19.125Z,60800.00
2018-06-21T08:50:19.141Z,64352.00
2018-06-21T08:51:19.158Z,64320.00
2018-06-21T08:52:19.176Z,64512.00
2018-06-21T08:53:19.190Z,63872.00
2018-06-21T08:54:19.208Z,61600.00
2018-06-21T08:55:19.225Z,60224.00
2018-06-21T08:56:19.240Z,59968.00
2018-06-21T08:57:19.258Z,62208.00
2018-06-21T08:58:19.276Z,62496.00
2018-06-21T08:59:19.325Z,63168.00
2018-06-21T09:00:19.307Z,61632.00
2018-06-21T09:01:19.326Z,62016.00
2018-06-21T09:02:19.339Z,58432.00
2018-06-21T09:03:19.357Z,59136.00
2018-06-21T09:04:19.374Z,48032.00
2018-06-21T09:05:19.391Z,60064.00
2018-06-21T09:06:19.408Z,59712.00
2018-06-21T09:07:19.424Z,45280.00
2018-06-21T09:08:19.441Z,4460.00
2018-06-21T09:09:19.459Z,8572.00
2018-06-21T09:10:19.471Z,60512.00
2018-06-21T09:11:19.488Z,55872.00
2018-06-21T09:12:19.502Z,54624.00
2018-06-21T09:13:19.518Z,56800.00
2018-06-21T09:14:19.533Z,56128.00
2018-06-21T09:15:19.561Z,55008.00
2018-06-21T09:16:19.565Z,8556.00
2018-06-21T09:17:19.581Z,6464.00
2018-06-21T09:18:19.595Z,4136.00
2018-06-21T09:19:19.829Z,4416.00
2018-06-21T09:20:19.629Z,6640.00
2018-06-21T09:21:19.639Z,7820.00
2018-06-21T09:22:19.653Z,5828.00
2018-06-21T09:23:19.666Z,6032.00
2018-06-21T09:24:19.684Z,48128.00
2018-06-21T09:25:19.696Z,49056.00
2018-06-21T09:26:19.707Z,18496.00
2018-06-21T09:27:19.720Z,5812.00
2018-06-21T09:28:19.735Z,7088.00
2018-06-21T09:29:19.747Z,25536.00
2018-06-21T09:30:19.761Z,46144.00
2018-06-21T09:31:19.798Z,8192.00
2018-06-21T09:32:19.788Z,5832.00
2018-06-21T09:33:19.829Z,16208.00
2018-06-21T09:34:19.817Z,6916.00
2018-06-21T09:35:19.825Z,23584.00
2018-06-21T09:36:19.837Z,8816.00
2018-06-21T09:37:19.850Z,39104.00
2018-06-21T09:38:19.862Z,30912.00
2018-06-21T09:39:19.874Z,41600.00
2018-06-21T09:40:19.888Z,40192.00
2018-06-21T09:41:19.902Z,39520.00
2018-06-21T09:42:19.912Z,38816.00
2018-06-21T09:43:19.927Z,36384.00
2018-06-21T09:44:19.940Z,36512.00
2018-06-21T09:45:19.953Z,33888.00
2018-06-21T09:46:19.967Z,34592.00
2018-06-21T09:47:19.982Z,32928.00
2018-06-21T09:48:19.994Z,31520.00
2018-06-21T09:49:20.010Z,35776.00
2018-06-21T09:50:20.023Z,34464.00
2018-06-21T09:51:20.039Z,33888.00
2018-06-21T09:52:20.051Z,32384.00
2018-06-21T09:53:20.069Z,30048.00
2018-06-21T09:54:20.081Z,27968.00
2018-06-21T09:55:20.095Z,28320.00
2018-06-21T09:56:20.110Z,28320.00
2018-06-21T09:57:20.128Z,29056.00
2018-06-21T09:58:20.235Z,29152.00
2018-06-21T09:59:20.218Z,26784.00
2018-06-21T10:00:20.179Z,28352.00
2018-06-21T10:01:20.184Z,27168.00
2018-06-21T10:02:20.202Z,26368.00
2018-06-21T10:03:20.214Z,23072.00
2018-06-21T10:04:20.230Z,24384.00
2018-06-21T10:05:20.243Z,23424.00
2018-06-21T10:06:20.258Z,22976.00
2018-06-21T10:07:20.272Z,22880.00
2018-06-21T10:08:20.287Z,23008.00
2018-06-21T10:09:20.302Z,24992.00
2018-06-21T10:10:20.366Z,21536.00
2018-06-21T10:11:20.333Z,21632.00
2018-06-21T10:12:20.348Z,21856.00
2018-06-21T10:13:20.477Z,19136.00
2018-06-21T10:14:20.604Z,17760.00
2018-06-21T10:15:20.395Z,17376.00
2018-06-21T10:16:20.408Z,17888.00
2018-06-21T10:17:20.422Z,16256.00
2018-06-21T10:18:20.435Z,15616.00
2018-06-21T10:19:20.451Z,16160.00
2018-06-21T10:20:20.468Z,17536.00
2018-06-21T10:21:20.481Z,16320.00
2018-06-21T10:22:20.495Z,14592.00
2018-06-21T10:23:20.512Z,16192.00
2018-06-21T10:24:20.523Z,19040.00
2018-06-21T10:25:20.538Z,4260.00
2018-06-21T10:26:20.553Z,19424.00
2018-06-21T10:27:20.576Z,15936.00
2018-06-21T10:28:20.580Z,12964.00
2018-06-21T10:29:20.596Z,11488.00
2018-06-21T10:30:20.608Z,9928.00
2018-06-21T10:31:20.622Z,5284.00
2018-06-21T10:32:20.636Z,5800.00
2018-06-21T10:33:20.708Z,10060.00
2018-06-21T10:34:20.668Z,8796.00
2018-06-21T10:35:20.678Z,4092.00
2018-06-21T10:36:21.258Z,7372.00
2018-06-21T10:37:20.706Z,9004.00
2018-06-21T10:38:20.718Z,7592.00
2018-06-21T10:39:20.730Z,9364.00
2018-06-21T10:40:20.745Z,7572.00
2018-06-21T10:41:20.758Z,4908.00
2018-06-21T10:42:20.770Z,4340.00
2018-06-21T10:43:20.782Z,4284.00
2018-06-21T10:44:20.795Z,8916.00
2018-06-21T10:45:20.809Z,8728.00
2018-06-21T10:46:21.238Z,8536.00
2018-06-21T10:47:20.832Z,7884.00
2018-06-21T10:48:20.845Z,7104.00
2018-06-21T10:49:20.858Z,5468.00
2018-06-21T10:50:20.871Z,6900.00
2018-06-21T10:51:20.882Z,7816.00
2018-06-21T10:52:20.894Z,9404.00
2018-06-21T10:53:20.906Z,5576.00
2018-06-21T10:54:20.916Z,8704.00
2018-06-21T10:55:20.931Z,8508.00
2018-06-21T10:56:20.942Z,8024.00
2018-06-21T10:57:20.955Z,7692.00
2018-06-21T10:58:20.968Z,7504.00
2018-06-21T10:59:20.978Z,5628.00
2018-06-21T11:00:20.992Z,7624.00
2018-06-21T11:01:21.004Z,7852.00
2018-06-21T11:02:21.024Z,7708.00
2018-06-21T11:03:21.060Z,7824.00
2018-06-21T11:04:21.040Z,7676.00
2018-06-21T11:05:21.057Z,7504.00
2018-06-21T11:06:21.064Z,7520.00
2018-06-21T11:07:21.339Z,7516.00
2018-06-21T11:08:21.090Z,7504.00
2018-06-21T11:09:21.104Z,7408.00
2018-06-21T11:10:21.115Z,7420.00
2018-06-21T11:11:21.128Z,7500.00
2018-06-21T11:12:21.159Z,7592.00
2018-06-21T11:13:21.154Z,7792.00
2018-06-21T11:14:21.167Z,7928.00
2018-06-21T11:15:21.178Z,8268.00
2018-06-21T11:16:21.192Z,8272.00
2018-06-21T11:17:21.205Z,8192.00
2018-06-21T11:18:21.217Z,8132.00
2018-06-21T11:19:21.231Z,7984.00
2018-06-21T11:20:21.244Z,7836.00
2018-06-21T11:21:21.277Z,7816.00
2018-06-21T11:22:21.269Z,7616.00
2018-06-21T11:23:21.281Z,7448.00
2018-06-21T11:24:21.295Z,7436.00
2018-06-21T11:25:21.309Z,7276.00
2018-06-21T11:26:21.323Z,7344.00
2018-06-21T11:27:21.425Z,7340.00
2018-06-21T11:28:21.346Z,7352.00
2018-06-21T11:29:21.360Z,7400.00
2018-06-21T11:30:21.372Z,7296.00
2018-06-21T11:31:21.384Z,7372.00
2018-06-21T11:32:21.396Z,7396.00
2018-06-21T11:33:21.411Z,7400.00
2018-06-21T11:34:21.432Z,7432.00
2018-06-21T11:35:21.436Z,7356.00
2018-06-21T11:36:21.448Z,7400.00
2018-06-21T11:37:21.462Z,7468.00
2018-06-21T11:38:21.474Z,7512.00
2018-06-21T11:39:21.486Z,7512.00
2018-06-21T11:40:21.500Z,7552.00
2018-06-21T11:41:21.513Z,7548.00
2018-06-21T11:42:21.525Z,7520.00
2018-06-21T11:43:21.538Z,7512.00
2018-06-21T11:44:21.550Z,7504.00
2018-06-21T11:45:21.563Z,7440.00
2018-06-21T11:46:21.576Z,7568.00
2018-06-21T11:47:21.589Z,7528.00
2018-06-21T11:48:21.601Z,7488.00
2018-06-21T11:49:21.615Z,7504.00
2018-06-21T11:50:21.629Z,7656.00
2018-06-21T11:51:21.639Z,7720.00
2018-06-21T11:52:21.700Z,7896.00
2018-06-21T11:53:21.665Z,7984.00
2018-06-21T11:54:21.676Z,7888.00
2018-06-21T11:55:21.689Z,7960.00
2018-06-21T11:56:21.704Z,7900.00
2018-06-21T11:57:21.715Z,7756.00
2018-06-21T11:58:21.727Z,7720.00
2018-06-21T11:59:21.740Z,7656.00
2018-06-21T12:00:21.753Z,7852.00
2018-06-21T12:01:21.764Z,7964.00
2018-06-21T12:02:21.776Z,7932.00
2018-06-21T12:03:21.793Z,8012.00
2018-06-21T12:04:21.804Z,7976.00
2018-06-21T12:05:21.814Z,7988.00
2018-06-21T12:06:21.825Z,8060.00
2018-06-21T12:07:21.838Z,8136.00
2018-06-21T12:08:21.850Z,8236.00
2018-06-21T12:09:21.867Z,8196.00
2018-06-21T12:10:21.876Z,8196.00
2018-06-21T12:11:21.888Z,8148.00
2018-06-21T12:12:21.900Z,8228.00
2018-06-21T12:13:21.923Z,8300.00
2018-06-21T12:14:21.923Z,8908.00
2018-06-21T12:15:21.935Z,9388.00
2018-06-21T12:16:21.948Z,9188.00
2018-06-21T12:17:21.960Z,9252.00
2018-06-21T12:18:21.972Z,8764.00
2018-06-21T12:19:21.984Z,8964.00
2018-06-21T12:20:21.999Z,9196.00
2018-06-21T12:21:22.008Z,9624.00